createdAt,value
2023-03-16T00:03:01.640Z,100504.70
2023-03-16T00:05:48.477Z,100503.84
2023-03-16T00:08:35.102Z,100501.40
2023-03-16T00:11:20.809Z,100499.70
2023-03-16T00:14:06.825Z,100497.77
2023-03-16T00:16:52.743Z,100499.84
2023-03-16T00:19:38.247Z,100502.20
2023-03-16T00:22:28.995Z,100508.73
2023-03-16T00:25:14.613Z,100516.33
2023-03-16T00:28:03.052Z,100515.52
2023-03-16T00:30:48.729Z,100519.85
2023-03-16T00:33:34.322Z,100521.14
2023-03-16T00:36:22.110Z,100524.13
2023-03-16T00:39:07.857Z,100528.35
2023-03-16T00:41:57.835Z,100525.50
2023-03-16T00:44:43.231Z,100530.56
2023-03-16T00:47:32.132Z,100530.65
2023-03-16T00:50:17.414Z,100533.95
2023-03-16T00:53:02.872Z,100528.67
2023-03-16T00:55:48.452Z,100528.59
2023-03-16T00:58:36.025Z,100530.36
2023-03-16T01:01:40.532Z,100531.42
2023-03-16T01:04:27.376Z,100531.70
2023-03-16T01:07:14.953Z,100530.02
2023-03-16T01:10:03.006Z,100527.38
2023-03-16T01:12:49.885Z,100532.45
2023-03-16T01:15:36.518Z,100535.43
2023-03-16T01:18:23.787Z,100538.06
2023-03-16T01:21:13.981Z,100538.98
2023-03-16T01:24:00.484Z,100539.23
2023-03-16T01:26:47.563Z,100537.44
2023-03-16T01:29:35.164Z,100540.33
2023-03-16T01:32:21.774Z,100536.48
2023-03-16T01:35:09.319Z,100538.52
2023-03-16T01:37:56.062Z,100540.08
2023-03-16T01:40:42.654Z,100538.50
2023-03-16T01:43:33.439Z,100539.59
2023-03-16T01:46:26.796Z,100540.98
2023-03-16T01:49:35.720Z,100540.29
2023-03-16T01:52:29.076Z,100548.45
2023-03-16T01:55:15.797Z,100549.88
2023-03-16T01:58:02.629Z,100552.52
2023-03-16T02:00:49.106Z,100552.31
2023-03-16T02:03:39.141Z,100551.39
2023-03-16T02:06:26.089Z,100556.81
2023-03-16T02:13:38.702Z,100557.72
2023-03-16T02:16:25.433Z,100562.92
2023-03-16T02:19:20.561Z,100563.71
2023-03-16T02:22:08.924Z,100567.23
2023-03-16T02:24:55.607Z,100564.64
2023-03-16T02:27:42.137Z,100564.94
2023-03-16T02:30:29.668Z,100569.17
2023-03-16T02:33:17.788Z,100574.64
2023-03-16T02:40:30.960Z,100579.46
2023-03-16T02:43:22.722Z,100580.23
2023-03-16T02:46:09.781Z,100584.33
2023-03-16T02:49:22.468Z,100583.68
2023-03-16T02:52:12.205Z,100584.92
2023-03-16T02:54:58.676Z,100589.25
2023-03-16T02:57:45.502Z,100590.30
2023-03-16T03:00:32.286Z,100592.86
2023-03-16T03:03:19.059Z,100595.41
2023-03-16T03:06:06.206Z,100593.72
2023-03-16T03:08:52.942Z,100598.23
2023-03-16T03:11:39.387Z,100601.81
2023-03-16T03:14:25.859Z,100604.25
2023-03-16T03:17:13.555Z,100608.40
2023-03-16T03:20:02.627Z,100613.75
2023-03-16T03:22:52.733Z,100616.90
2023-03-16T03:25:39.169Z,100618.20
2023-03-16T03:28:26.383Z,100617.54
2023-03-16T03:31:17.789Z,100624.25
2023-03-16T03:34:06.780Z,100627.63
2023-03-16T03:36:53.759Z,100628.86
2023-03-16T03:39:40.588Z,100630.97
2023-03-16T03:42:29.585Z,100633.53
2023-03-16T03:45:16.716Z,100636.63
2023-03-16T03:48:03.638Z,100639.36
2023-03-16T03:50:50.914Z,100646.45
2023-03-16T03:53:37.729Z,100649.86
2023-03-16T03:56:25.367Z,100650.76
2023-03-16T03:59:12.225Z,100649.75
2023-03-16T04:01:59.107Z,100649.77
2023-03-16T04:04:45.807Z,100649.45
2023-03-16T04:07:32.593Z,100650.64
2023-03-16T04:10:19.055Z,100652.35
2023-03-16T04:13:05.627Z,100653.55
2023-03-16T04:15:59.831Z,100651.09
2023-03-16T04:18:46.478Z,100655.71
2023-03-16T04:21:34.089Z,100661.70
2023-03-16T04:24:22.440Z,100663.19
2023-03-16T04:27:12.105Z,100663.17
2023-03-16T04:29:59.768Z,100665.55
2023-03-16T04:32:49.512Z,100663.66
2023-03-16T04:35:36.183Z,100666.97
2023-03-16T04:38:22.934Z,100672.94
2023-03-16T04:41:11.432Z,100673.64
2023-03-16T04:43:59.092Z,100682.45
2023-03-16T04:46:45.899Z,100685.73
2023-03-16T04:49:32.423Z,100686.55
2023-03-16T04:52:19.283Z,100690.48
2023-03-16T04:55:06.540Z,100691.81
2023-03-16T04:57:53.348Z,100691.98
2023-03-16T05:00:41.459Z,100694.02
2023-03-16T05:03:28.068Z,100690.59
2023-03-16T05:06:14.763Z,100691.41
2023-03-16T05:09:01.475Z,100698.40
2023-03-16T05:11:47.882Z,100700.44
2023-03-16T05:14:36.610Z,100702.86
2023-03-16T05:17:23.109Z,100704.46
2023-03-16T05:20:15.849Z,100704.63
2023-03-16T05:23:03.028Z,100705.19
2023-03-16T05:25:50.607Z,100708.60
2023-03-16T05:28:37.032Z,100717.05
2023-03-16T05:31:26.771Z,100722.17
2023-03-16T05:34:13.614Z,100717.60
2023-03-16T05:37:02.315Z,100722.36
2023-03-16T05:39:49.021Z,100723.59
2023-03-16T05:42:35.515Z,100728.06
2023-03-16T05:45:22.252Z,100727.31
2023-03-16T05:48:09.281Z,100727.67
2023-03-16T05:50:55.773Z,100732.34
2023-03-16T05:53:42.634Z,100732.13
2023-03-16T05:56:31.595Z,100732.70
2023-03-16T05:59:18.366Z,100730.51
2023-03-16T06:02:05.255Z,100728.65
2023-03-16T06:04:51.814Z,100731.44
2023-03-16T06:07:41.257Z,100735.00
2023-03-16T06:10:28.162Z,100738.34
2023-03-16T06:13:15.174Z,100745.24
2023-03-16T06:16:02.332Z,100746.92
2023-03-16T06:18:49.751Z,100753.91
2023-03-16T06:21:36.562Z,100755.05
2023-03-16T06:24:23.597Z,100759.49
2023-03-16T06:27:11.154Z,100760.50
2023-03-16T06:29:57.524Z,100763.23
2023-03-16T06:32:47.676Z,100760.95
2023-03-16T06:35:34.839Z,100761.84
2023-03-16T06:38:21.356Z,100762.08
2023-03-16T06:41:08.159Z,100767.73
2023-03-16T06:43:55.015Z,100773.89
2023-03-16T06:46:41.883Z,100779.19
2023-03-16T06:49:28.722Z,100781.27
2023-03-16T06:52:15.288Z,100786.59
2023-03-16T06:55:03.638Z,100788.95
2023-03-16T06:57:50.530Z,100789.56
2023-03-16T07:00:38.186Z,100785.20
2023-03-16T07:03:27.137Z,100788.31
2023-03-16T07:06:22.187Z,100789.45
2023-03-16T07:09:12.577Z,100792.00
2023-03-16T07:12:13.957Z,100794.64
2023-03-16T07:15:01.302Z,100792.09
2023-03-16T07:17:48.786Z,100802.73
2023-03-16T07:20:37.199Z,100800.66
2023-03-16T07:23:26.347Z,100802.33
2023-03-16T07:26:14.819Z,100801.73
2023-03-16T07:29:07.628Z,100800.00
2023-03-16T07:31:55.826Z,100800.30
2023-03-16T07:34:45.395Z,100801.52
2023-03-16T07:37:35.173Z,100800.48
2023-03-16T07:40:22.402Z,100806.52
2023-03-16T07:43:09.346Z,100807.52
2023-03-16T07:45:56.649Z,100805.62
2023-03-16T07:48:52.175Z,100807.58
2023-03-16T07:51:41.268Z,100809.86
2023-03-16T07:54:41.730Z,100810.16
2023-03-16T07:57:32.566Z,100810.77
2023-03-16T08:00:24.801Z,100816.46
2023-03-16T08:03:14.190Z,100819.41
2023-03-16T08:06:19.924Z,100818.20
2023-03-16T08:09:07.087Z,100818.04
2023-03-16T08:11:57.852Z,100822.45
2023-03-16T08:14:47.357Z,100823.83
2023-03-16T08:17:35.585Z,100825.67
2023-03-16T08:20:25.447Z,100825.59
2023-03-16T08:23:13.384Z,100823.64
2023-03-16T08:26:01.231Z,100825.70
2023-03-16T08:29:19.025Z,100824.87
2023-03-16T08:32:13.358Z,100830.30
2023-03-16T08:35:08.899Z,100830.09
2023-03-16T08:38:00.141Z,100833.29
2023-03-16T08:40:53.925Z,100837.46
2023-03-16T08:43:42.394Z,100837.17
2023-03-16T08:46:32.548Z,100841.27
2023-03-16T08:49:24.600Z,100843.11
2023-03-16T08:52:13.202Z,100841.81
2023-03-16T08:55:03.780Z,100842.66
2023-03-16T08:57:52.466Z,100844.79
2023-03-16T09:00:46.472Z,100847.30
2023-03-16T09:03:37.371Z,100852.14
2023-03-16T09:06:27.820Z,100855.98
2023-03-16T09:09:15.785Z,100856.54
2023-03-16T09:12:12.543Z,100857.46
2023-03-16T09:15:02.520Z,100854.60
2023-03-16T09:18:00.128Z,100851.44
2023-03-16T09:20:48.465Z,100855.14
2023-03-16T09:23:38.747Z,100856.98
2023-03-16T09:37:16.453Z,100861.02
2023-03-16T09:40:28.545Z,100862.35
2023-03-16T09:43:59.534Z,100864.05
2023-03-16T09:46:49.605Z,100859.04
2023-03-16T09:49:43.976Z,100856.52
2023-03-16T09:52:35.606Z,100857.20
2023-03-16T09:55:28.422Z,100859.08
2023-03-16T09:58:30.080Z,100862.81
2023-03-16T10:01:35.462Z,100861.39
2023-03-16T10:04:39.820Z,100863.81
2023-03-16T10:07:50.341Z,100870.90
2023-03-16T10:11:07.391Z,100878.08
2023-03-16T10:14:01.439Z,100878.13
2023-03-16T10:17:01.477Z,100875.77
2023-03-16T10:20:01.824Z,100875.48
2023-03-16T10:22:52.610Z,100873.48
2023-03-16T10:25:56.583Z,100872.91
2023-03-16T10:28:48.820Z,100873.10
2023-03-16T10:31:41.641Z,100872.44
2023-03-16T10:34:30.799Z,100877.35
2023-03-16T10:37:19.624Z,100882.31
2023-03-16T10:40:10.811Z,100885.27
2023-03-16T10:43:10.545Z,100879.46
2023-03-16T10:46:04.370Z,100878.95
2023-03-16T10:49:01.991Z,100886.00
2023-03-16T10:51:49.767Z,100886.27
2023-03-16T10:54:41.912Z,100888.25
2023-03-16T10:57:34.253Z,100888.84
2023-03-16T11:00:41.896Z,100885.29
2023-03-16T11:03:32.411Z,100880.30
2023-03-16T11:10:59.955Z,100873.75
2023-03-16T11:13:49.436Z,100875.43
2023-03-16T11:27:35.090Z,100863.86
2023-03-16T11:30:31.073Z,100863.08
2023-03-16T11:33:19.137Z,100860.02
2023-03-16T11:36:43.596Z,100867.23
2023-03-16T11:39:41.097Z,100868.36
2023-03-16T11:43:00.697Z,100862.52
2023-03-16T11:46:02.833Z,100867.27
2023-03-16T11:49:28.754Z,100861.45
2023-03-16T11:53:10.405Z,100860.03
2023-03-16T11:56:15.625Z,100857.71
2023-03-16T11:59:18.595Z,100861.45
2023-03-16T12:02:32.477Z,100859.56
2023-03-16T12:05:29.573Z,100868.39
2023-03-16T12:08:23.615Z,100870.63
2023-03-16T12:11:23.447Z,100871.94
2023-03-16T12:14:24.697Z,100868.91
2023-03-16T12:17:23.431Z,100870.73
2023-03-16T12:20:17.223Z,100872.30
2023-03-16T12:23:33.281Z,100871.89
2023-03-16T12:26:32.660Z,100877.15
2023-03-16T12:29:30.983Z,100871.75
2023-03-16T12:32:34.856Z,100875.52
2023-03-16T12:35:46.948Z,100877.44
2023-03-16T12:38:37.937Z,100875.94
2023-03-16T12:41:30.182Z,100874.09
2023-03-16T12:44:31.472Z,100876.61
2023-03-16T12:47:46.512Z,100880.50
2023-03-16T12:50:34.662Z,100880.81
2023-03-16T12:53:42.338Z,100881.21
2023-03-16T12:56:43.774Z,100880.60
2023-03-16T12:59:43.060Z,100882.10
2023-03-16T13:02:36.033Z,100884.28
2023-03-16T13:05:36.301Z,100886.91
2023-03-16T13:08:25.278Z,100888.55
2023-03-16T13:11:16.613Z,100890.49
2023-03-16T13:14:08.955Z,100887.81
2023-03-16T13:17:07.206Z,100886.12
2023-03-16T13:20:18.244Z,100893.91
2023-03-16T13:23:53.709Z,100891.65
2023-03-16T13:27:00.435Z,100893.50
2023-03-16T13:29:55.575Z,100894.95
2023-03-16T13:33:03.949Z,100892.02
2023-03-16T13:36:08.763Z,100894.19
2023-03-16T13:39:25.122Z,100899.98
2023-03-16T13:42:33.518Z,100898.95
2023-03-16T13:45:35.884Z,100898.62
2023-03-16T13:48:26.109Z,100900.05
2023-03-16T13:51:24.046Z,100903.09
2023-03-16T13:54:26.703Z,100898.17
2023-03-16T13:57:18.855Z,100900.76
2023-03-16T14:00:20.299Z,100900.14
2023-03-16T14:03:16.346Z,100899.97
2023-03-16T14:06:05.617Z,100900.10
2023-03-16T14:08:58.417Z,100895.02
2023-03-16T14:11:48.684Z,100898.05
2023-03-16T14:14:41.251Z,100900.52
2023-03-16T14:17:28.926Z,100901.33
2023-03-16T14:20:28.737Z,100897.41
2023-03-16T14:23:24.706Z,100897.65
2023-03-16T14:26:18.856Z,100901.75
2023-03-16T14:29:16.219Z,100906.04
2023-03-16T14:32:03.835Z,100902.79
2023-03-16T14:34:51.321Z,100903.05
2023-03-16T14:37:38.679Z,100902.58
2023-03-16T14:40:30.900Z,100905.10
2023-03-16T14:43:21.301Z,100905.66
2023-03-16T14:46:13.537Z,100904.33
2023-03-16T14:49:24.872Z,100906.64
2023-03-16T14:52:31.775Z,100905.46
2023-03-16T14:55:22.530Z,100906.91
2023-03-16T14:58:10.038Z,100906.27
2023-03-16T15:00:56.710Z,100910.66
2023-03-16T15:03:45.196Z,100911.46
2023-03-16T15:06:33.023Z,100911.77
2023-03-16T15:09:47.152Z,100917.56
2023-03-16T15:12:34.944Z,100917.54
2023-03-16T15:15:24.073Z,100918.11
2023-03-16T15:22:39.229Z,100925.01
2023-03-16T15:25:37.534Z,100924.30
2023-03-16T15:29:22.807Z,100925.66
2023-03-16T15:32:14.696Z,100924.73
2023-03-16T15:35:01.728Z,100928.75
2023-03-16T15:37:48.921Z,100926.33
2023-03-16T15:40:40.116Z,100929.73
2023-03-16T15:43:29.418Z,100929.27
2023-03-16T15:50:24.898Z,100941.69
2023-03-16T15:53:29.976Z,100944.06
2023-03-16T15:56:24.883Z,100943.98
2023-03-16T15:59:17.307Z,100946.61
2023-03-16T16:02:25.265Z,100946.28
2023-03-16T16:05:12.602Z,100948.50
2023-03-16T16:08:01.082Z,100955.80
2023-03-16T16:10:49.889Z,100959.16
2023-03-16T16:13:44.653Z,100956.88
2023-03-16T16:16:33.952Z,100962.91
2023-03-16T16:19:21.637Z,100965.05
2023-03-16T16:22:13.162Z,100969.47
2023-03-16T16:24:59.977Z,100967.60
2023-03-16T16:27:47.398Z,100968.33
2023-03-16T16:30:36.240Z,100972.98
2023-03-16T16:33:30.187Z,100975.62
2023-03-16T16:36:20.330Z,100979.91
2023-03-16T16:39:07.813Z,100982.52
2023-03-16T16:41:56.966Z,100986.99
2023-03-16T16:44:46.597Z,100987.88
2023-03-16T16:47:33.241Z,100992.35
2023-03-16T16:50:23.017Z,100992.87
2023-03-16T16:53:20.912Z,100990.81
2023-03-16T16:56:13.739Z,100994.88
2023-03-16T16:59:07.243Z,100995.85
2023-03-16T17:01:57.538Z,101000.33
2023-03-16T17:04:44.194Z,101003.17
2023-03-16T17:07:31.014Z,101004.29
2023-03-16T17:10:26.037Z,101007.29
2023-03-16T17:13:39.269Z,101008.61
2023-03-16T17:16:28.792Z,101009.30
2023-03-16T17:19:19.863Z,101013.48
2023-03-16T17:22:24.811Z,101013.13
2023-03-16T17:25:11.502Z,101014.95
2023-03-16T17:27:58.565Z,101015.03
2023-03-16T17:30:48.239Z,101017.11
2023-03-16T17:33:34.695Z,101019.02
2023-03-16T17:36:22.386Z,101022.23
2023-03-16T17:39:18.748Z,101022.51
2023-03-16T17:42:14.570Z,101024.98
2023-03-16T17:45:01.625Z,101029.84
2023-03-16T17:47:50.383Z,101034.52
2023-03-16T17:50:39.972Z,101034.73
2023-03-16T17:53:26.889Z,101040.05
2023-03-16T17:56:26.015Z,101041.68
2023-03-16T17:59:19.238Z,101042.72
2023-03-16T18:14:44.505Z,101047.77
2023-03-16T18:17:33.784Z,101047.10
2023-03-16T18:20:23.334Z,101055.80
2023-03-16T18:23:16.194Z,101056.66
2023-03-16T18:26:04.160Z,101061.37
2023-03-16T18:28:53.489Z,101058.08
2023-03-16T18:31:41.280Z,101063.02
2023-03-16T18:34:33.779Z,101065.27
2023-03-16T18:37:23.595Z,101070.14
2023-03-16T18:40:13.738Z,101077.89
2023-03-16T18:43:00.393Z,101080.39
2023-03-16T18:45:48.092Z,101083.27
2023-03-16T18:48:36.750Z,101078.76
2023-03-16T18:51:30.508Z,101080.20
2023-03-16T18:54:29.334Z,101081.16
2023-03-16T18:57:19.092Z,101084.25
2023-03-16T19:00:06.587Z,101088.11
2023-03-16T19:02:59.371Z,101089.05
2023-03-16T19:05:50.098Z,101091.24
2023-03-16T19:08:36.928Z,101093.85
2023-03-16T19:11:23.873Z,101095.70
2023-03-16T19:14:23.569Z,101093.38
2023-03-16T19:17:10.280Z,101094.61
2023-03-16T19:19:57.304Z,101094.31
2023-03-16T19:22:46.031Z,101096.61
2023-03-16T19:25:37.586Z,101097.55
2023-03-16T19:32:46.745Z,101109.88
2023-03-16T19:35:50.334Z,101112.39
2023-03-16T19:43:01.217Z,101124.70
2023-03-16T19:45:49.259Z,101125.66
2023-03-16T19:48:37.596Z,101125.25
2023-03-16T19:51:26.470Z,101129.80
2023-03-16T19:54:25.397Z,101127.13
2023-03-16T19:57:15.320Z,101132.21
2023-03-16T20:00:02.508Z,101134.42
2023-03-16T20:02:51.617Z,101132.61
2023-03-16T20:05:39.909Z,101133.98
2023-03-16T20:09:29.616Z,101133.80
2023-03-16T20:12:29.167Z,101134.83
2023-03-16T20:15:20.930Z,101141.08
2023-03-16T20:18:16.332Z,101139.11
2023-03-16T20:21:07.283Z,101137.13
2023-03-16T20:23:54.414Z,101135.60
2023-03-16T20:26:48.583Z,101135.42
2023-03-16T20:29:35.437Z,101138.23
2023-03-16T20:32:30.862Z,101137.96
2023-03-16T20:35:25.740Z,101136.65
2023-03-16T20:38:14.955Z,101134.70
2023-03-16T20:41:01.814Z,101132.41
2023-03-16T20:43:48.581Z,101132.52
2023-03-16T20:46:35.748Z,101131.52
2023-03-16T20:49:21.986Z,101136.20
2023-03-16T20:52:20.645Z,101133.96
2023-03-16T20:55:07.361Z,101138.89
2023-03-16T20:57:55.474Z,101140.25
2023-03-16T21:00:41.936Z,101140.77
2023-03-16T21:03:31.024Z,101144.86
2023-03-16T21:06:24.271Z,101148.02
2023-03-16T21:09:12.469Z,101149.94
2023-03-16T21:12:00.203Z,101148.72
2023-03-16T21:14:47.071Z,101146.24
2023-03-16T21:17:38.306Z,101149.73
2023-03-16T21:20:27.115Z,101154.80
2023-03-16T21:23:22.481Z,101154.70
2023-03-16T21:26:20.386Z,101154.33
2023-03-16T21:29:21.349Z,101156.92
2023-03-16T21:32:20.394Z,101154.97
2023-03-16T21:35:14.022Z,101156.72
2023-03-16T21:38:11.712Z,101152.86
2023-03-16T21:40:59.622Z,101149.64
2023-03-16T21:46:59.646Z,101145.91
2023-03-16T21:49:46.202Z,101145.16
2023-03-16T21:52:33.893Z,101146.98
2023-03-16T21:55:24.042Z,101156.02
2023-03-16T21:58:10.736Z,101149.59
2023-03-16T22:00:58.443Z,101153.08
2023-03-16T22:03:50.983Z,101151.58
2023-03-16T22:06:39.502Z,101150.50
2023-03-16T22:09:30.203Z,101144.92
2023-03-16T22:12:16.722Z,101145.16
2023-03-16T22:15:03.643Z,101148.31
2023-03-16T22:17:50.467Z,101152.20
2023-03-16T22:20:37.334Z,101159.45
2023-03-16T22:23:34.148Z,101160.82
2023-03-16T22:26:22.824Z,101158.33
2023-03-16T22:29:30.886Z,101156.86
2023-03-16T22:32:21.207Z,101158.27
2023-03-16T22:35:22.013Z,101160.83
2023-03-16T22:38:12.479Z,101157.98
2023-03-16T22:41:00.637Z,101154.05
2023-03-16T22:43:48.396Z,101153.16
2023-03-16T22:46:34.727Z,101159.77
2023-03-16T22:49:27.260Z,101158.42
2023-03-16T22:52:13.742Z,101158.61
2023-03-16T22:55:01.803Z,101161.17
2023-03-16T22:57:51.780Z,101163.42
2023-03-16T23:00:38.439Z,101164.30
2023-03-16T23:03:25.259Z,101172.84
2023-03-16T23:07:03.926Z,101172.91
2023-03-16T23:09:50.390Z,101172.23
2023-03-16T23:12:37.058Z,101172.23
2023-03-16T23:15:28.640Z,101172.23
2023-03-16T23:18:24.569Z,101175.39
2023-03-16T23:21:19.176Z,101176.10
2023-03-16T23:24:06.539Z,101176.61
2023-03-16T23:26:54.654Z,101177.86
2023-03-16T23:29:41.622Z,101177.52
2023-03-16T23:32:28.531Z,101178.41
2023-03-16T23:35:18.712Z,101183.87
2023-03-16T23:38:05.734Z,101185.00
2023-03-16T23:40:52.344Z,101190.98
2023-03-16T23:43:43.971Z,101193.27
2023-03-16T23:46:30.590Z,101192.40
2023-03-16T23:49:30.689Z,101193.89
2023-03-16T23:52:17.780Z,101190.04
2023-03-16T23:55:10.184Z,101193.58
2023-03-16T23:57:56.941Z,101195.23
